sensor_id;sensor_type;location;lat;lon;timestamp;P1;durP1;ratioP1;P2;durP2;ratioP2
66425;SDS011;53237;46.158;14.604;2023-07-22T00:02:13;2.58;;;2.38;;
66425;SDS011;53237;46.158;14.604;2023-07-22T00:04:39;2.47;;;2.28;;
66425;SDS011;53237;46.158;14.604;2023-07-22T00:07:05;2.55;;;2.35;;
66425;SDS011;53237;46.158;14.604;2023-07-22T00:09:34;2.83;;;2.63;;
66425;SDS011;53237;46.158;14.604;2023-07-22T00:12:00;2.97;;;2.67;;
66425;SDS011;53237;46.158;14.604;2023-07-22T00:14:26;2.65;;;2.45;;
66425;SDS011;53237;46.158;14.604;2023-07-22T00:16:52;3.22;;;2.45;;
66425;SDS011;53237;46.158;14.604;2023-07-22T00:19:18;2.45;;;2.25;;
66425;SDS011;53237;46.158;14.604;2023-07-22T00:21:44;2.53;;;2.33;;
66425;SDS011;53237;46.158;14.604;2023-07-22T00:24:10;2.67;;;2.47;;
66425;SDS011;53237;46.158;14.604;2023-07-22T00:26:36;2.42;;;2.22;;
66425;SDS011;53237;46.158;14.604;2023-07-22T00:29:02;2.42;;;2.20;;
66425;SDS011;53237;46.158;14.604;2023-07-22T00:31:29;2.45;;;2.17;;
66425;SDS011;53237;46.158;14.604;2023-07-22T00:33:56;3.70;;;2.50;;
66425;SDS011;53237;46.158;14.604;2023-07-22T00:36:22;4.63;;;2.60;;
66425;SDS011;53237;46.158;14.604;2023-07-22T00:38:48;2.95;;;2.45;;
66425;SDS011;53237;46.158;14.604;2023-07-22T00:41:14;6.07;;;3.00;;
66425;SDS011;53237;46.158;14.604;2023-07-22T00:43:40;4.45;;;4.05;;
66425;SDS011;53237;46.158;14.604;2023-07-22T00:46:06;5.68;;;3.88;;
66425;SDS011;53237;46.158;14.604;2023-07-22T00:48:32;6.15;;;3.50;;
66425;SDS011;53237;46.158;14.604;2023-07-22T00:50:58;4.53;;;2.83;;
66425;SDS011;53237;46.158;14.604;2023-07-22T00:53:24;5.18;;;2.63;;
66425;SDS011;53237;46.158;14.604;2023-07-22T00:55:50;3.78;;;2.97;;
66425;SDS011;53237;46.158;14.604;2023-07-22T00:58:16;3.65;;;3.35;;
66425;SDS011;53237;46.158;14.604;2023-07-22T01:00:42;4.10;;;3.47;;
66425;SDS011;53237;46.158;14.604;2023-07-22T01:03:08;2.60;;;2.40;;
66425;SDS011;53237;46.158;14.604;2023-07-22T01:05:34;2.20;;;2.10;;
66425;SDS011;53237;46.158;14.604;2023-07-22T01:08:02;2.50;;;2.30;;
66425;SDS011;53237;46.158;14.604;2023-07-22T01:10:28;3.30;;;2.15;;
66425;SDS011;53237;46.158;14.604;2023-07-22T01:12:55;3.20;;;2.63;;
66425;SDS011;53237;46.158;14.604;2023-07-22T01:15:21;2.90;;;2.50;;
66425;SDS011;53237;46.158;14.604;2023-07-22T01:17:48;2.70;;;2.20;;
66425;SDS011;53237;46.158;14.604;2023-07-22T01:20:15;4.57;;;2.60;;
66425;SDS011;53237;46.158;14.604;2023-07-22T01:22:41;2.50;;;2.30;;
66425;SDS011;53237;46.158;14.604;2023-07-22T01:25:08;2.58;;;2.38;;
66425;SDS011;53237;46.158;14.604;2023-07-22T01:27:35;2.63;;;2.42;;
66425;SDS011;53237;46.158;14.604;2023-07-22T01:30:01;3.38;;;2.30;;
66425;SDS011;53237;46.158;14.604;2023-07-22T01:32:28;2.00;;;1.90;;
66425;SDS011;53237;46.158;14.604;2023-07-22T01:34:54;2.53;;;2.33;;
66425;SDS011;53237;46.158;14.604;2023-07-22T01:37:20;2.42;;;2.22;;
66425;SDS011;53237;46.158;14.604;2023-07-22T01:39:46;2.30;;;2.10;;
66425;SDS011;53237;46.158;14.604;2023-07-22T01:42:12;3.05;;;2.28;;
66425;SDS011;53237;46.158;14.604;2023-07-22T01:44:39;3.25;;;2.92;;
66425;SDS011;53237;46.158;14.604;2023-07-22T01:47:06;4.68;;;3.00;;
66425;SDS011;53237;46.158;14.604;2023-07-22T01:49:32;1.90;;;1.80;;
66425;SDS011;53237;46.158;14.604;2023-07-22T01:51:59;2.75;;;2.15;;
66425;SDS011;53237;46.158;14.604;2023-07-22T01:54:25;2.35;;;2.20;;
66425;SDS011;53237;46.158;14.604;2023-07-22T01:56:51;2.28;;;2.08;;
66425;SDS011;53237;46.158;14.604;2023-07-22T01:59:17;2.33;;;2.13;;
66425;SDS011;53237;46.158;14.604;2023-07-22T02:01:43;1.75;;;1.65;;
66425;SDS011;53237;46.158;14.604;2023-07-22T02:04:09;2.30;;;2.10;;
66425;SDS011;53237;46.158;14.604;2023-07-22T02:06:36;2.30;;;2.10;;
66425;SDS011;53237;46.158;14.604;2023-07-22T02:09:02;2.58;;;2.00;;
66425;SDS011;53237;46.158;14.604;2023-07-22T02:11:33;1.88;;;1.77;;
66425;SDS011;53237;46.158;14.604;2023-07-22T02:13:59;2.08;;;1.98;;
66425;SDS011;53237;46.158;14.604;2023-07-22T02:16:26;2.15;;;1.88;;
66425;SDS011;53237;46.158;14.604;2023-07-22T02:18:52;1.90;;;1.80;;
66425;SDS011;53237;46.158;14.604;2023-07-22T02:21:18;2.22;;;2.10;;
66425;SDS011;53237;46.158;14.604;2023-07-22T02:23:44;1.92;;;1.83;;
66425;SDS011;53237;46.158;14.604;2023-07-22T02:26:10;1.83;;;1.70;;
66425;SDS011;53237;46.158;14.604;2023-07-22T02:28:36;1.90;;;1.80;;
66425;SDS011;53237;46.158;14.604;2023-07-22T02:31:02;3.03;;;1.90;;
66425;SDS011;53237;46.158;14.604;2023-07-22T02:33:32;2.00;;;1.80;;
66425;SDS011;53237;46.158;14.604;2023-07-22T02:35:57;3.28;;;1.90;;
66425;SDS011;53237;46.158;14.604;2023-07-22T02:38:23;2.10;;;2.00;;
66425;SDS011;53237;46.158;14.604;2023-07-22T02:40:49;1.77;;;1.67;;
66425;SDS011;53237;46.158;14.604;2023-07-22T02:43:15;2.08;;;1.90;;
66425;SDS011;53237;46.158;14.604;2023-07-22T02:45:41;2.10;;;1.95;;
66425;SDS011;53237;46.158;14.604;2023-07-22T02:48:07;2.40;;;2.20;;
66425;SDS011;53237;46.158;14.604;2023-07-22T02:50:34;2.13;;;2.03;;
66425;SDS011;53237;46.158;14.604;2023-07-22T02:53:01;2.67;;;2.05;;
66425;SDS011;53237;46.158;14.604;2023-07-22T02:55:27;1.73;;;1.63;;
66425;SDS011;53237;46.158;14.604;2023-07-22T02:57:53;1.90;;;1.80;;
66425;SDS011;53237;46.158;14.604;2023-07-22T03:00:20;1.77;;;1.65;;
66425;SDS011;53237;46.158;14.604;2023-07-22T03:02:55;2.03;;;1.90;;
66425;SDS011;53237;46.158;14.604;2023-07-22T03:05:29;1.70;;;1.60;;
66425;SDS011;53237;46.158;14.604;2023-07-22T03:07:56;1.63;;;1.52;;
66425;SDS011;53237;46.158;14.604;2023-07-22T03:10:22;2.65;;;1.85;;
66425;SDS011;53237;46.158;14.604;2023-07-22T03:12:50;2.95;;;1.80;;
66425;SDS011;53237;46.158;14.604;2023-07-22T03:15:20;2.63;;;2.00;;
66425;SDS011;53237;46.158;14.604;2023-07-22T03:17:46;1.60;;;1.50;;
66425;SDS011;53237;46.158;14.604;2023-07-22T03:20:12;1.75;;;1.65;;
66425;SDS011;53237;46.158;14.604;2023-07-22T03:22:44;1.90;;;1.80;;
66425;SDS011;53237;46.158;14.604;2023-07-22T03:25:11;1.60;;;1.50;;
66425;SDS011;53237;46.158;14.604;2023-07-22T03:27:37;1.58;;;1.48;;
66425;SDS011;53237;46.158;14.604;2023-07-22T03:30:04;1.63;;;1.52;;
66425;SDS011;53237;46.158;14.604;2023-07-22T03:32:33;1.70;;;1.60;;
66425;SDS011;53237;46.158;14.604;2023-07-22T03:35:00;1.80;;;1.65;;
66425;SDS011;53237;46.158;14.604;2023-07-22T03:37:29;1.75;;;1.63;;
66425;SDS011;53237;46.158;14.604;2023-07-22T03:39:56;1.77;;;1.67;;
66425;SDS011;53237;46.158;14.604;2023-07-22T03:42:22;2.03;;;1.77;;
66425;SDS011;53237;46.158;14.604;2023-07-22T03:44:48;2.45;;;2.25;;
66425;SDS011;53237;46.158;14.604;2023-07-22T03:47:14;1.90;;;1.80;;
66425;SDS011;53237;46.158;14.604;2023-07-22T03:49:40;1.92;;;1.50;;
66425;SDS011;53237;46.158;14.604;2023-07-22T03:52:06;2.00;;;1.90;;
66425;SDS011;53237;46.158;14.604;2023-07-22T03:54:39;1.85;;;1.45;;
66425;SDS011;53237;46.158;14.604;2023-07-22T03:57:09;1.60;;;1.50;;
66425;SDS011;53237;46.158;14.604;2023-07-22T03:59:35;1.85;;;1.73;;
66425;SDS011;53237;46.158;14.604;2023-07-22T04:02:04;2.33;;;1.98;;
66425;SDS011;53237;46.158;14.604;2023-07-22T04:04:30;1.83;;;1.73;;
66425;SDS011;53237;46.158;14.604;2023-07-22T04:06:57;3.85;;;1.98;;
66425;SDS011;53237;46.158;14.604;2023-07-22T04:09:23;2.75;;;2.13;;
66425;SDS011;53237;46.158;14.604;2023-07-22T04:11:49;1.90;;;1.80;;
66425;SDS011;53237;46.158;14.604;2023-07-22T04:14:15;1.60;;;1.50;;
66425;SDS011;53237;46.158;14.604;2023-07-22T04:16:41;2.28;;;1.90;;
66425;SDS011;53237;46.158;14.604;2023-07-22T04:19:07;2.10;;;1.90;;
66425;SDS011;53237;46.158;14.604;2023-07-22T04:21:33;1.77;;;1.67;;
66425;SDS011;53237;46.158;14.604;2023-07-22T04:23:59;1.70;;;1.60;;
66425;SDS011;53237;46.158;14.604;2023-07-22T04:26:25;2.00;;;1.83;;
66425;SDS011;53237;46.158;14.604;2023-07-22T04:28:52;3.40;;;1.90;;
66425;SDS011;53237;46.158;14.604;2023-07-22T04:31:18;3.00;;;2.20;;
66425;SDS011;53237;46.158;14.604;2023-07-22T04:33:44;4.13;;;2.80;;
66425;SDS011;53237;46.158;14.604;2023-07-22T04:36:10;2.22;;;2.00;;
66425;SDS011;53237;46.158;14.604;2023-07-22T04:38:36;2.22;;;2.10;;
66425;SDS011;53237;46.158;14.604;2023-07-22T04:41:04;4.93;;;3.55;;
66425;SDS011;53237;46.158;14.604;2023-07-22T04:43:34;3.25;;;2.92;;
66425;SDS011;53237;46.158;14.604;2023-07-22T04:46:00;3.75;;;3.20;;
66425;SDS011;53237;46.158;14.604;2023-07-22T04:48:26;2.40;;;2.30;;
66425;SDS011;53237;46.158;14.604;2023-07-22T04:50:52;3.00;;;2.65;;
66425;SDS011;53237;46.158;14.604;2023-07-22T04:53:18;2.75;;;2.55;;
66425;SDS011;53237;46.158;14.604;2023-07-22T04:55:44;2.67;;;2.45;;
66425;SDS011;53237;46.158;14.604;2023-07-22T04:58:10;1.98;;;1.88;;
66425;SDS011;53237;46.158;14.604;2023-07-22T05:00:36;3.65;;;3.10;;
66425;SDS011;53237;46.158;14.604;2023-07-22T05:03:03;4.07;;;3.67;;
66425;SDS011;53237;46.158;14.604;2023-07-22T05:05:29;3.30;;;3.00;;
66425;SDS011;53237;46.158;14.604;2023-07-22T05:07:55;5.35;;;4.43;;
66425;SDS011;53237;46.158;14.604;2023-07-22T05:10:21;5.60;;;4.55;;
66425;SDS011;53237;46.158;14.604;2023-07-22T05:12:47;4.18;;;3.80;;
66425;SDS011;53237;46.158;14.604;2023-07-22T05:15:13;6.05;;;5.32;;
66425;SDS011;53237;46.158;14.604;2023-07-22T05:17:40;6.18;;;5.40;;
66425;SDS011;53237;46.158;14.604;2023-07-22T05:20:06;6.07;;;5.45;;
66425;SDS011;53237;46.158;14.604;2023-07-22T05:22:35;7.93;;;6.22;;
66425;SDS011;53237;46.158;14.604;2023-07-22T05:25:01;4.82;;;4.35;;
66425;SDS011;53237;46.158;14.604;2023-07-22T05:27:27;5.43;;;4.57;;
66425;SDS011;53237;46.158;14.604;2023-07-22T05:29:53;5.32;;;4.25;;
66425;SDS011;53237;46.158;14.604;2023-07-22T05:32:20;6.82;;;4.72;;
66425;SDS011;53237;46.158;14.604;2023-07-22T05:34:46;6.28;;;5.68;;
66425;SDS011;53237;46.158;14.604;2023-07-22T05:37:12;7.18;;;6.47;;
66425;SDS011;53237;46.158;14.604;2023-07-22T05:39:37;5.45;;;4.90;;
66425;SDS011;53237;46.158;14.604;2023-07-22T05:42:04;5.72;;;4.85;;
66425;SDS011;53237;46.158;14.604;2023-07-22T05:44:30;4.43;;;4.03;;
66425;SDS011;53237;46.158;14.604;2023-07-22T05:46:56;6.47;;;5.85;;
66425;SDS011;53237;46.158;14.604;2023-07-22T05:49:22;6.82;;;6.18;;
66425;SDS011;53237;46.158;14.604;2023-07-22T05:51:48;7.13;;;5.97;;
66425;SDS011;53237;46.158;14.604;2023-07-22T05:54:14;7.68;;;6.95;;
66425;SDS011;53237;46.158;14.604;2023-07-22T05:56:40;7.85;;;7.05;;
66425;SDS011;53237;46.158;14.604;2023-07-22T05:59:06;7.00;;;6.30;;
66425;SDS011;53237;46.158;14.604;2023-07-22T06:01:32;7.07;;;6.38;;
66425;SDS011;53237;46.158;14.604;2023-07-22T06:03:58;7.63;;;6.90;;
66425;SDS011;53237;46.158;14.604;2023-07-22T06:06:24;8.55;;;7.28;;
66425;SDS011;53237;46.158;14.604;2023-07-22T06:08:50;7.50;;;6.80;;
66425;SDS011;53237;46.158;14.604;2023-07-22T06:11:16;7.70;;;6.82;;
66425;SDS011;53237;46.158;14.604;2023-07-22T06:13:42;7.13;;;6.53;;
66425;SDS011;53237;46.158;14.604;2023-07-22T06:16:08;7.80;;;7.00;;
66425;SDS011;53237;46.158;14.604;2023-07-22T06:18:34;8.65;;;7.68;;
66425;SDS011;53237;46.158;14.604;2023-07-22T06:21:00;9.38;;;8.18;;
66425;SDS011;53237;46.158;14.604;2023-07-22T06:23:26;8.15;;;7.35;;
66425;SDS011;53237;46.158;14.604;2023-07-22T06:25:52;9.00;;;7.05;;
66425;SDS011;53237;46.158;14.604;2023-07-22T06:28:18;6.90;;;6.13;;
66425;SDS011;53237;46.158;14.604;2023-07-22T06:30:44;6.13;;;5.53;;
66425;SDS011;53237;46.158;14.604;2023-07-22T06:33:10;5.80;;;5.30;;
66425;SDS011;53237;46.158;14.604;2023-07-22T06:35:36;5.90;;;5.30;;
66425;SDS011;53237;46.158;14.604;2023-07-22T06:38:02;5.15;;;4.75;;
66425;SDS011;53237;46.158;14.604;2023-07-22T06:40:28;4.22;;;3.83;;
66425;SDS011;53237;46.158;14.604;2023-07-22T06:42:54;5.53;;;5.03;;
66425;SDS011;53237;46.158;14.604;2023-07-22T06:45:20;5.07;;;4.55;;
66425;SDS011;53237;46.158;14.604;2023-07-22T06:47:46;5.05;;;4.65;;
66425;SDS011;53237;46.158;14.604;2023-07-22T06:50:12;4.00;;;3.70;;
66425;SDS011;53237;46.158;14.604;2023-07-22T06:52:38;4.20;;;3.83;;
66425;SDS011;53237;46.158;14.604;2023-07-22T06:55:04;4.78;;;4.10;;
66425;SDS011;53237;46.158;14.604;2023-07-22T06:57:30;4.53;;;4.13;;
66425;SDS011;53237;46.158;14.604;2023-07-22T06:59:56;3.55;;;3.25;;
66425;SDS011;53237;46.158;14.604;2023-07-22T07:02:22;4.13;;;3.72;;
66425;SDS011;53237;46.158;14.604;2023-07-22T07:04:49;4.28;;;3.88;;
66425;SDS011;53237;46.158;14.604;2023-07-22T07:07:15;3.83;;;3.45;;
66425;SDS011;53237;46.158;14.604;2023-07-22T07:09:41;3.80;;;3.50;;
66425;SDS011;53237;46.158;14.604;2023-07-22T07:12:08;4.40;;;3.42;;
66425;SDS011;53237;46.158;14.604;2023-07-22T07:14:34;5.07;;;4.00;;
66425;SDS011;53237;46.158;14.604;2023-07-22T07:17:00;3.90;;;3.40;;
66425;SDS011;53237;46.158;14.604;2023-07-22T07:19:27;3.50;;;3.20;;
66425;SDS011;53237;46.158;14.604;2023-07-22T07:21:53;3.42;;;3.13;;
66425;SDS011;53237;46.158;14.604;2023-07-22T07:24:19;3.78;;;3.10;;
66425;SDS011;53237;46.158;14.604;2023-07-22T07:26:45;4.55;;;3.17;;
66425;SDS011;53237;46.158;14.604;2023-07-22T07:29:11;3.45;;;3.15;;
66425;SDS011;53237;46.158;14.604;2023-07-22T07:31:38;3.00;;;2.80;;
66425;SDS011;53237;46.158;14.604;2023-07-22T07:34:04;3.95;;;3.08;;
66425;SDS011;53237;46.158;14.604;2023-07-22T07:36:30;3.10;;;2.80;;
66425;SDS011;53237;46.158;14.604;2023-07-22T07:38:56;3.05;;;2.75;;
66425;SDS011;53237;46.158;14.604;2023-07-22T07:41:21;3.42;;;2.70;;
66425;SDS011;53237;46.158;14.604;2023-07-22T07:43:51;3.58;;;2.90;;
66425;SDS011;53237;46.158;14.604;2023-07-22T07:46:37;3.08;;;2.78;;
66425;SDS011;53237;46.158;14.604;2023-07-22T07:49:04;2.50;;;2.30;;
66425;SDS011;53237;46.158;14.604;2023-07-22T07:51:30;3.35;;;2.60;;
66425;SDS011;53237;46.158;14.604;2023-07-22T07:53:59;3.28;;;2.28;;
66425;SDS011;53237;46.158;14.604;2023-07-22T07:56:25;2.15;;;2.05;;
66425;SDS011;53237;46.158;14.604;2023-07-22T07:58:52;3.17;;;2.45;;
66425;SDS011;53237;46.158;14.604;2023-07-22T08:01:18;2.70;;;2.53;;
66425;SDS011;53237;46.158;14.604;2023-07-22T08:03:46;2.60;;;2.40;;
66425;SDS011;53237;46.158;14.604;2023-07-22T08:06:12;2.67;;;2.47;;
66425;SDS011;53237;46.158;14.604;2023-07-22T08:08:38;2.88;;;2.53;;
66425;SDS011;53237;46.158;14.604;2023-07-22T08:11:11;3.83;;;2.67;;
66425;SDS011;53237;46.158;14.604;2023-07-22T08:13:40;2.72;;;2.53;;
66425;SDS011;53237;46.158;14.604;2023-07-22T08:16:07;2.60;;;2.40;;
66425;SDS011;53237;46.158;14.604;2023-07-22T08:18:34;2.80;;;2.60;;
66425;SDS011;53237;46.158;14.604;2023-07-22T08:21:00;2.33;;;2.13;;
66425;SDS011;53237;46.158;14.604;2023-07-22T08:23:27;2.58;;;2.38;;
66425;SDS011;53237;46.158;14.604;2023-07-22T08:25:53;2.95;;;2.65;;
66425;SDS011;53237;46.158;14.604;2023-07-22T08:28:19;2.50;;;2.30;;
66425;SDS011;53237;46.158;14.604;2023-07-22T08:30:47;2.63;;;2.42;;
66425;SDS011;53237;46.158;14.604;2023-07-22T08:33:14;2.70;;;2.50;;
66425;SDS011;53237;46.158;14.604;2023-07-22T08:35:41;2.45;;;2.25;;
66425;SDS011;53237;46.158;14.604;2023-07-22T08:38:07;2.40;;;2.20;;
66425;SDS011;53237;46.158;14.604;2023-07-22T08:40:37;2.40;;;2.20;;
66425;SDS011;53237;46.158;14.604;2023-07-22T08:43:04;2.60;;;2.40;;
66425;SDS011;53237;46.158;14.604;2023-07-22T08:45:31;2.47;;;2.10;;
66425;SDS011;53237;46.158;14.604;2023-07-22T08:47:58;2.40;;;2.20;;
66425;SDS011;53237;46.158;14.604;2023-07-22T08:50:26;2.70;;;2.40;;
66425;SDS011;53237;46.158;14.604;2023-07-22T08:52:55;2.20;;;2.10;;
66425;SDS011;53237;46.158;14.604;2023-07-22T08:55:22;2.13;;;2.00;;
66425;SDS011;53237;46.158;14.604;2023-07-22T08:57:49;1.90;;;1.80;;
66425;SDS011;53237;46.158;14.604;2023-07-22T09:00:16;2.17;;;2.08;;
66425;SDS011;53237;46.158;14.604;2023-07-22T09:02:42;2.85;;;2.55;;
66425;SDS011;53237;46.158;14.604;2023-07-22T09:05:08;2.20;;;2.00;;
66425;SDS011;53237;46.158;14.604;2023-07-22T09:07:35;2.00;;;1.90;;
66425;SDS011;53237;46.158;14.604;2023-07-22T09:10:01;2.20;;;2.00;;
66425;SDS011;53237;46.158;14.604;2023-07-22T09:12:28;1.83;;;1.73;;
66425;SDS011;53237;46.158;14.604;2023-07-22T09:14:54;3.05;;;1.85;;
66425;SDS011;53237;46.158;14.604;2023-07-22T09:17:20;2.40;;;2.20;;
66425;SDS011;53237;46.158;14.604;2023-07-22T09:19:46;2.00;;;1.90;;
66425;SDS011;53237;46.158;14.604;2023-07-22T09:22:12;1.85;;;1.75;;
66425;SDS011;53237;46.158;14.604;2023-07-22T09:24:38;1.98;;;1.83;;
66425;SDS011;53237;46.158;14.604;2023-07-22T09:27:04;2.83;;;2.22;;
66425;SDS011;53237;46.158;14.604;2023-07-22T09:29:38;1.98;;;1.85;;
66425;SDS011;53237;46.158;14.604;2023-07-22T09:32:07;1.90;;;1.80;;
66425;SDS011;53237;46.158;14.604;2023-07-22T09:34:33;2.38;;;1.73;;
66425;SDS011;53237;46.158;14.604;2023-07-22T09:36:59;3.03;;;2.60;;
66425;SDS011;53237;46.158;14.604;2023-07-22T09:39:26;4.03;;;2.78;;
66425;SDS011;53237;46.158;14.604;2023-07-22T09:41:52;3.45;;;3.15;;
66425;SDS011;53237;46.158;14.604;2023-07-22T09:44:18;3.28;;;2.70;;
66425;SDS011;53237;46.158;14.604;2023-07-22T09:46:50;2.42;;;2.28;;
66425;SDS011;53237;46.158;14.604;2023-07-22T09:49:17;3.00;;;2.70;;
66425;SDS011;53237;46.158;14.604;2023-07-22T09:51:43;3.00;;;2.78;;
66425;SDS011;53237;46.158;14.604;2023-07-22T09:54:09;2.70;;;2.50;;
66425;SDS011;53237;46.158;14.604;2023-07-22T09:56:46;3.38;;;2.60;;
66425;SDS011;53237;46.158;14.604;2023-07-22T09:59:12;2.75;;;2.55;;
66425;SDS011;53237;46.158;14.604;2023-07-22T10:01:39;2.35;;;2.15;;
66425;SDS011;53237;46.158;14.604;2023-07-22T10:04:05;3.40;;;2.40;;
66425;SDS011;53237;46.158;14.604;2023-07-22T10:06:32;2.80;;;2.22;;
66425;SDS011;53237;46.158;14.604;2023-07-22T10:09:01;3.15;;;2.67;;
66425;SDS011;53237;46.158;14.604;2023-07-22T10:11:27;3.22;;;2.63;;
66425;SDS011;53237;46.158;14.604;2023-07-22T10:13:55;5.10;;;4.32;;
66425;SDS011;53237;46.158;14.604;2023-07-22T10:16:21;3.05;;;2.75;;
66425;SDS011;53237;46.158;14.604;2023-07-22T10:18:48;2.90;;;2.55;;
66425;SDS011;53237;46.158;14.604;2023-07-22T10:21:14;2.67;;;2.47;;
66425;SDS011;53237;46.158;14.604;2023-07-22T10:23:40;2.05;;;1.95;;
66425;SDS011;53237;46.158;14.604;2023-07-22T10:26:07;2.05;;;1.95;;
66425;SDS011;53237;46.158;14.604;2023-07-22T10:28:35;2.42;;;2.15;;
66425;SDS011;53237;46.158;14.604;2023-07-22T10:31:02;2.00;;;1.90;;
66425;SDS011;53237;46.158;14.604;2023-07-22T10:33:28;1.98;;;1.75;;
66425;SDS011;53237;46.158;14.604;2023-07-22T10:36:05;2.40;;;2.20;;
66425;SDS011;53237;46.158;14.604;2023-07-22T10:38:31;2.35;;;2.15;;
66425;SDS011;53237;46.158;14.604;2023-07-22T10:40:57;1.90;;;1.80;;
66425;SDS011;53237;46.158;14.604;2023-07-22T10:43:31;2.00;;;1.80;;
66425;SDS011;53237;46.158;14.604;2023-07-22T10:46:09;1.65;;;1.55;;
66425;SDS011;53237;46.158;14.604;2023-07-22T10:48:36;1.98;;;1.67;;
66425;SDS011;53237;46.158;14.604;2023-07-22T10:51:20;1.85;;;1.75;;
66425;SDS011;53237;46.158;14.604;2023-07-22T10:53:47;1.92;;;1.83;;
66425;SDS011;53237;46.158;14.604;2023-07-22T10:56:20;1.80;;;1.70;;
66425;SDS011;53237;46.158;14.604;2023-07-22T11:01:34;1.90;;;1.80;;
66425;SDS011;53237;46.158;14.604;2023-07-22T11:06:30;1.88;;;1.55;;
66425;SDS011;53237;46.158;14.604;2023-07-22T11:08:56;2.10;;;1.90;;
66425;SDS011;53237;46.158;14.604;2023-07-22T11:14:16;2.40;;;1.95;;
66425;SDS011;53237;46.158;14.604;2023-07-22T11:16:44;1.83;;;1.70;;
66425;SDS011;53237;46.158;14.604;2023-07-22T11:19:12;1.80;;;1.70;;
66425;SDS011;53237;46.158;14.604;2023-07-22T11:21:38;1.98;;;1.88;;
66425;SDS011;53237;46.158;14.604;2023-07-22T11:24:04;2.13;;;1.92;;
66425;SDS011;53237;46.158;14.604;2023-07-22T11:26:30;2.42;;;1.85;;
66425;SDS011;53237;46.158;14.604;2023-07-22T11:28:57;2.28;;;1.70;;
66425;SDS011;53237;46.158;14.604;2023-07-22T11:31:30;1.70;;;1.60;;
66425;SDS011;53237;46.158;14.604;2023-07-22T11:33:56;1.80;;;1.70;;
66425;SDS011;53237;46.158;14.604;2023-07-22T11:36:22;1.95;;;1.85;;
66425;SDS011;53237;46.158;14.604;2023-07-22T11:38:48;4.70;;;1.90;;
66425;SDS011;53237;46.158;14.604;2023-07-22T11:41:14;19.85;;;3.25;;
66425;SDS011;53237;46.158;14.604;2023-07-22T11:43:40;19.05;;;3.42;;
66425;SDS011;53237;46.158;14.604;2023-07-22T11:46:06;16.55;;;3.00;;
66425;SDS011;53237;46.158;14.604;2023-07-22T11:48:32;5.03;;;2.40;;
66425;SDS011;53237;46.158;14.604;2023-07-22T11:50:59;3.38;;;2.03;;
66425;SDS011;53237;46.158;14.604;2023-07-22T11:53:28;4.82;;;2.10;;
66425;SDS011;53237;46.158;14.604;2023-07-22T11:55:57;2.67;;;2.33;;
66425;SDS011;53237;46.158;14.604;2023-07-22T11:58:26;2.67;;;2.05;;
66425;SDS011;53237;46.158;14.604;2023-07-22T12:01:02;2.97;;;2.05;;
66425;SDS011;53237;46.158;14.604;2023-07-22T12:03:32;2.40;;;2.20;;
66425;SDS011;53237;46.158;14.604;2023-07-22T12:06:05;3.75;;;2.45;;
66425;SDS011;53237;46.158;14.604;2023-07-22T12:08:35;5.53;;;3.30;;
66425;SDS011;53237;46.158;14.604;2023-07-22T12:11:01;5.53;;;3.10;;
66425;SDS011;53237;46.158;14.604;2023-07-22T12:13:29;9.40;;;4.00;;
66425;SDS011;53237;46.158;14.604;2023-07-22T12:16:02;2.63;;;2.20;;
66425;SDS011;53237;46.158;14.604;2023-07-22T12:18:28;4.13;;;2.47;;
66425;SDS011;53237;46.158;14.604;2023-07-22T12:20:56;3.88;;;2.63;;
66425;SDS011;53237;46.158;14.604;2023-07-22T12:23:23;2.92;;;2.50;;
66425;SDS011;53237;46.158;14.604;2023-07-22T12:25:48;4.13;;;2.28;;
66425;SDS011;53237;46.158;14.604;2023-07-22T12:28:14;2.42;;;2.22;;
66425;SDS011;53237;46.158;14.604;2023-07-22T12:30:40;2.58;;;2.38;;
66425;SDS011;53237;46.158;14.604;2023-07-22T12:33:06;3.40;;;2.33;;
66425;SDS011;53237;46.158;14.604;2023-07-22T12:35:32;3.88;;;2.15;;
66425;SDS011;53237;46.158;14.604;2023-07-22T12:37:58;2.55;;;2.30;;
66425;SDS011;53237;46.158;14.604;2023-07-22T12:40:24;2.92;;;2.42;;
66425;SDS011;53237;46.158;14.604;2023-07-22T12:42:50;2.05;;;1.95;;
66425;SDS011;53237;46.158;14.604;2023-07-22T12:45:16;5.05;;;2.00;;
66425;SDS011;53237;46.158;14.604;2023-07-22T12:47:42;6.18;;;2.03;;
66425;SDS011;53237;46.158;14.604;2023-07-22T12:50:08;2.30;;;2.10;;
66425;SDS011;53237;46.158;14.604;2023-07-22T12:52:34;2.60;;;2.10;;
66425;SDS011;53237;46.158;14.604;2023-07-22T12:55:00;7.13;;;2.40;;
66425;SDS011;53237;46.158;14.604;2023-07-22T12:57:26;2.88;;;2.10;;
66425;SDS011;53237;46.158;14.604;2023-07-22T12:59:52;7.10;;;2.60;;
66425;SDS011;53237;46.158;14.604;2023-07-22T13:02:18;28.02;;;3.92;;
66425;SDS011;53237;46.158;14.604;2023-07-22T13:04:44;8.85;;;2.22;;
66425;SDS011;53237;46.158;14.604;2023-07-22T13:07:10;8.95;;;2.80;;
66425;SDS011;53237;46.158;14.604;2023-07-22T13:09:36;5.43;;;2.20;;
66425;SDS011;53237;46.158;14.604;2023-07-22T13:12:02;3.08;;;2.00;;
66425;SDS011;53237;46.158;14.604;2023-07-22T13:14:28;4.28;;;2.00;;
66425;SDS011;53237;46.158;14.604;2023-07-22T13:16:54;2.20;;;2.00;;
66425;SDS011;53237;46.158;14.604;2023-07-22T13:19:20;4.35;;;2.10;;
66425;SDS011;53237;46.158;14.604;2023-07-22T13:21:46;3.70;;;2.03;;
66425;SDS011;53237;46.158;14.604;2023-07-22T13:24:12;3.70;;;1.70;;
66425;SDS011;53237;46.158;14.604;2023-07-22T13:26:39;2.63;;;2.03;;
66425;SDS011;53237;46.158;14.604;2023-07-22T13:29:05;4.90;;;2.10;;
66425;SDS011;53237;46.158;14.604;2023-07-22T13:31:31;4.45;;;2.17;;
66425;SDS011;53237;46.158;14.604;2023-07-22T13:33:57;7.53;;;1.95;;
66425;SDS011;53237;46.158;14.604;2023-07-22T13:36:23;3.95;;;2.00;;
66425;SDS011;53237;46.158;14.604;2023-07-22T13:38:49;2.20;;;2.00;;
66425;SDS011;53237;46.158;14.604;2023-07-22T13:41:14;2.92;;;1.95;;
66425;SDS011;53237;46.158;14.604;2023-07-22T13:43:40;3.08;;;1.90;;
66425;SDS011;53237;46.158;14.604;2023-07-22T13:46:06;2.30;;;1.70;;
66425;SDS011;53237;46.158;14.604;2023-07-22T13:48:33;2.25;;;1.98;;
66425;SDS011;53237;46.158;14.604;2023-07-22T13:50:59;1.88;;;1.77;;
66425;SDS011;53237;46.158;14.604;2023-07-22T13:53:25;2.17;;;1.75;;
66425;SDS011;53237;46.158;14.604;2023-07-22T13:55:51;1.75;;;1.65;;
66425;SDS011;53237;46.158;14.604;2023-07-22T13:58:17;2.55;;;2.03;;
66425;SDS011;53237;46.158;14.604;2023-07-22T14:00:43;2.40;;;2.20;;
66425;SDS011;53237;46.158;14.604;2023-07-22T14:03:09;1.80;;;1.70;;
66425;SDS011;53237;46.158;14.604;2023-07-22T14:05:35;2.95;;;2.05;;
66425;SDS011;53237;46.158;14.604;2023-07-22T14:08:01;2.42;;;1.88;;
66425;SDS011;53237;46.158;14.604;2023-07-22T14:10:27;2.08;;;1.90;;
66425;SDS011;53237;46.158;14.604;2023-07-22T14:12:53;2.17;;;1.98;;
66425;SDS011;53237;46.158;14.604;2023-07-22T14:15:19;2.08;;;1.98;;
66425;SDS011;53237;46.158;14.604;2023-07-22T14:17:45;1.83;;;1.73;;
66425;SDS011;53237;46.158;14.604;2023-07-22T14:20:11;2.30;;;2.10;;
66425;SDS011;53237;46.158;14.604;2023-07-22T14:22:38;2.28;;;2.10;;
66425;SDS011;53237;46.158;14.604;2023-07-22T14:25:04;2.58;;;2.20;;
66425;SDS011;53237;46.158;14.604;2023-07-22T14:27:30;1.98;;;1.88;;
66425;SDS011;53237;46.158;14.604;2023-07-22T14:29:56;2.25;;;2.05;;
66425;SDS011;53237;46.158;14.604;2023-07-22T14:32:22;2.20;;;2.00;;
66425;SDS011;53237;46.158;14.604;2023-07-22T14:34:48;2.00;;;1.90;;
66425;SDS011;53237;46.158;14.604;2023-07-22T14:37:15;2.22;;;2.03;;
66425;SDS011;53237;46.158;14.604;2023-07-22T14:39:41;2.00;;;1.88;;